Time;durP1;ratioP1;P1;durP2;ratioP2;P2;SDS_P1;SDS_P2;PMS_P1;PMS_P2;Temp;Humidity;BMP_temperature;BMP_pressure;BME280_temperature;BME280_humidity;BME280_pressure;Samples;Min_cycle;Max_cycle;Signal;HPM_P1;HPM_P2
2022/06/22 00:02:35;;;;;;;5.55;2.92;;;17.00;99.90;;;;;;5044636;28;20044;-69
2022/06/22 00:05:11;;;;;;;5.45;3.10;;;16.90;99.90;;;;;;5046066;28;20025;-70
2022/06/22 00:07:42;;;;;;;7.22;3.65;;;16.90;99.90;;;;;;5047744;28;20045;-70
2022/06/22 00:10:17;;;;;;;8.45;3.75;;;16.80;99.90;;;;;;5046871;28;20029;-70
2022/06/22 00:12:48;;;;;;;6.32;3.38;;;16.90;99.90;;;;;;5046493;28;20017;-70
2022/06/22 00:15:32;;;;;;;6.18;4.10;;;16.90;99.90;;;;;;5043277;28;20032;-70
2022/06/22 00:17:59;;;;;;;5.47;3.25;;;16.90;99.90;;;;;;5043739;28;20033;-70
2022/06/22 00:20:31;;;;;;;8.13;3.65;;;16.90;99.90;;;;;;5045537;28;20021;-70
2022/06/22 00:23:18;;;;;;;5.07;3.22;;;16.90;99.90;;;;;;5044781;28;20540;-70
2022/06/22 00:25:46;;;;;;;6.35;3.80;;;16.80;99.80;;;;;;5044900;28;20037;-69
2022/06/22 00:29:03;;;;;;;4.22;3.60;;;16.80;99.80;;;;;;5048159;28;20025;-70
2022/06/22 00:31:38;;;;;;;7.40;4.18;;;16.70;99.90;;;;;;5039937;28;20059;-69
2022/06/22 00:34:08;;;;;;;5.63;3.70;;;16.80;99.90;;;;;;5044427;28;20033;-70
2022/06/22 00:36:40;;;;;;;4.40;3.95;;;16.70;99.90;;;;;;5046624;28;20017;-69
2022/06/22 00:39:21;;;;;;;4.60;3.28;;;16.50;99.90;;;;;;5044125;28;20026;-69
2022/06/22 00:42:21;;;;;;;4.60;3.00;;;16.50;99.90;;;;;;5044917;28;20032;-70
2022/06/22 00:45:31;;;;;;;8.52;4.03;;;16.40;99.90;;;;;;5043477;28;20037;-69
2022/06/22 00:48:18;;;;;;;6.45;3.85;;;16.50;99.90;;;;;;5022388;28;20037;-69
2022/06/22 00:50:48;;;;;;;8.30;4.05;;;16.50;99.90;;;;;;5045373;28;20025;-69
2022/06/22 00:53:19;;;;;;;4.75;3.92;;;16.40;99.90;;;;;;5045347;28;20169;-69
2022/06/22 00:56:15;;;;;;;4.60;3.67;;;16.40;99.90;;;;;;5043770;28;20391;-69
2022/06/22 00:59:04;;;;;;;4.38;3.83;;;16.40;99.90;;;;;;5047620;28;20037;-70
2022/06/22 01:01:52;;;;;;;8.85;3.55;;;16.40;99.90;;;;;;5043368;28;20041;-69
2022/06/22 01:04:22;;;;;;;6.07;4.05;;;16.40;99.90;;;;;;5043995;28;20021;-69
2022/06/22 01:07:02;;;;;;;6.22;3.70;;;16.40;99.90;;;;;;5045672;28;20029;-69
2022/06/22 01:09:36;;;;;;;5.60;4.25;;;16.20;99.90;;;;;;5046552;28;20466;-69
2022/06/22 01:12:18;;;;;;;6.85;3.60;;;16.20;99.90;;;;;;5043889;28;20029;-69
2022/06/22 01:14:57;;;;;;;5.10;3.90;;;16.10;99.90;;;;;;5043059;28;20032;-69
2022/06/22 01:17:43;;;;;;;4.85;3.55;;;16.10;99.90;;;;;;5047425;28;20032;-69
2022/06/22 01:20:28;;;;;;;5.07;4.28;;;16.10;99.90;;;;;;5043977;28;20044;-69
2022/06/22 01:23:19;;;;;;;5.82;4.38;;;16.10;99.90;;;;;;5046184;28;20022;-69
2022/06/22 01:25:57;;;;;;;7.10;4.72;;;16.10;99.90;;;;;;5044000;28;20028;-70
2022/06/22 01:28:24;;;;;;;6.88;4.75;;;16.10;99.90;;;;;;5044952;28;20017;-70
2022/06/22 01:30:54;;;;;;;7.35;4.60;;;16.00;99.90;;;;;;5043765;28;20021;-69
2022/06/22 01:33:26;;;;;;;8.90;5.20;;;16.10;99.90;;;;;;5047611;28;20127;-69
2022/06/22 01:36:01;;;;;;;7.03;5.17;;;16.00;99.90;;;;;;5043666;28;20029;-69
2022/06/22 01:38:30;;;;;;;10.75;5.35;;;16.10;99.90;;;;;;5043275;28;20029;-69
2022/06/22 01:41:25;;;;;;;7.25;6.20;;;16.00;99.90;;;;;;5044912;28;20025;-69
2022/06/22 01:44:13;;;;;;;9.15;5.63;;;15.90;99.90;;;;;;5044819;28;20375;-69
2022/06/22 01:47:10;;;;;;;6.35;5.72;;;15.90;99.90;;;;;;5043298;28;20049;-69
2022/06/22 01:49:43;;;;;;;11.30;6.53;;;16.00;99.90;;;;;;5044957;28;20021;-69
2022/06/22 01:52:16;;;;;;;9.07;5.80;;;15.90;99.90;;;;;;5043408;28;20025;-69
2022/06/22 01:54:52;;;;;;;10.38;6.05;;;15.90;99.90;;;;;;5042780;28;20027;-69
2022/06/22 01:57:35;;;;;;;7.70;5.72;;;15.90;99.90;;;;;;5044371;28;20029;-69
2022/06/22 02:00:13;;;;;;;7.07;5.97;;;15.90;99.90;;;;;;5044125;28;20035;-69
2022/06/22 02:02:44;;;;;;;7.10;5.45;;;15.90;99.90;;;;;;5050435;28;20047;-69
2022/06/22 02:05:32;;;;;;;8.07;5.15;;;15.90;99.90;;;;;;5043003;28;20529;-69
2022/06/22 02:08:22;;;;;;;10.45;6.15;;;15.90;99.90;;;;;;5044504;28;20025;-70
2022/06/22 02:11:06;;;;;;;8.45;6.18;;;15.90;99.90;;;;;;5041945;28;20453;-70
2022/06/22 02:13:42;;;;;;;9.75;7.45;;;15.90;99.90;;;;;;5044409;28;20107;-69
2022/06/22 02:16:47;;;;;;;10.93;8.30;;;15.90;99.90;;;;;;5043733;28;20052;-70
2022/06/22 02:19:18;;;;;;;9.75;6.72;;;15.90;99.90;;;;;;5045580;28;20021;-69
2022/06/22 02:21:54;;;;;;;10.43;6.68;;;15.80;99.90;;;;;;5043691;28;20037;-69
2022/06/22 02:24:35;;;;;;;9.90;7.15;;;15.70;99.90;;;;;;5043285;28;20078;-69
2022/06/22 02:27:20;;;;;;;10.93;7.57;;;15.70;99.90;;;;;;5043802;28;20049;-69
2022/06/22 02:29:55;;;;;;;10.65;7.45;;;15.80;99.90;;;;;;5042699;28;20408;-69
2022/06/22 02:32:32;;;;;;;10.07;7.85;;;15.80;99.90;;;;;;5045664;28;20144;-69
2022/06/22 02:34:58;;;;;;;10.45;8.30;;;15.80;99.90;;;;;;5041662;28;20033;-69
2022/06/22 02:37:27;;;;;;;8.40;7.00;;;15.80;99.90;;;;;;5046486;28;20029;-69
2022/06/22 02:40:00;;;;;;;10.68;6.78;;;15.70;99.90;;;;;;5042009;28;20024;-69
2022/06/22 02:45:14;;;;;;;8.80;7.20;;;15.70;99.90;;;;;;5042910;28;20406;-69
2022/06/22 02:48:00;;;;;;;9.90;7.57;;;15.70;99.90;;;;;;5044018;28;20021;-69
2022/06/22 02:50:39;;;;;;;9.38;8.48;;;15.70;99.90;;;;;;5044790;28;20369;-69
2022/06/22 02:53:14;;;;;;;12.45;9.45;;;15.70;99.90;;;;;;5044227;28;20025;-69
2022/06/22 02:55:40;;;;;;;9.27;7.35;;;15.60;99.90;;;;;;5043237;28;20120;-69
2022/06/22 02:58:45;;;;;;;8.75;7.40;;;15.50;99.90;;;;;;5041626;28;20104;-69
2022/06/22 03:01:17;;;;;;;8.07;6.72;;;15.50;99.90;;;;;;5050164;28;20445;-69
2022/06/22 03:03:49;;;;;;;12.23;8.57;;;15.60;99.90;;;;;;5049542;28;20055;-69
2022/06/22 03:06:15;;;;;;;9.43;7.43;;;15.50;99.90;;;;;;5046813;28;20592;-69
2022/06/22 03:08:42;;;;;;;13.15;8.07;;;15.50;99.90;;;;;;5042380;28;20025;-69
2022/06/22 03:11:10;;;;;;;11.85;8.93;;;15.50;99.90;;;;;;5037475;28;20080;-69
2022/06/22 03:13:44;;;;;;;9.48;8.52;;;15.50;99.90;;;;;;5035929;28;20048;-69
2022/06/22 03:16:21;;;;;;;9.60;8.05;;;15.40;99.90;;;;;;5067114;28;20033;-69
2022/06/22 03:18:50;;;;;;;9.88;7.72;;;15.40;99.90;;;;;;5052494;28;20443;-69
2022/06/22 03:21:17;;;;;;;11.32;8.50;;;15.40;99.90;;;;;;5052327;28;20029;-69
2022/06/22 03:24:01;;;;;;;9.88;8.77;;;15.40;99.90;;;;;;5053292;28;20534;-69
2022/06/22 03:26:41;;;;;;;9.38;8.23;;;15.40;99.90;;;;;;5056347;28;20025;-69
2022/06/22 03:29:28;;;;;;;11.00;9.77;;;15.50;99.90;;;;;;5056470;28;20047;-69
2022/06/22 03:32:14;;;;;;;10.45;9.02;;;15.40;99.90;;;;;;5055871;28;20108;-69
2022/06/22 03:34:48;;;;;;;10.75;8.68;;;15.40;99.90;;;;;;5056197;28;20036;-69
2022/06/22 03:37:25;;;;;;;9.02;8.10;;;15.30;99.90;;;;;;5055931;28;20098;-69
2022/06/22 03:40:00;;;;;;;12.30;8.90;;;15.20;99.90;;;;;;5056037;28;20079;-69
2022/06/22 03:42:35;;;;;;;10.50;8.95;;;15.30;99.90;;;;;;5056116;28;20133;-69
2022/06/22 03:45:08;;;;;;;10.63;9.52;;;15.30;99.90;;;;;;5047284;28;20030;-69
2022/06/22 03:47:45;;;;;;;10.40;9.13;;;15.30;99.90;;;;;;5052183;28;20032;-69
2022/06/22 03:50:40;;;;;;;14.10;9.70;;;15.30;99.90;;;;;;5056378;28;20029;-69
2022/06/22 03:53:30;;;;;;;15.95;10.85;;;15.30;99.90;;;;;;5048170;28;20037;-69
2022/06/22 03:56:04;;;;;;;12.07;9.38;;;15.30;99.90;;;;;;5055119;28;20091;-69
2022/06/22 03:58:30;;;;;;;13.20;9.95;;;15.20;99.90;;;;;;5042407;28;20025;-69
2022/06/22 04:00:58;;;;;;;13.93;10.18;;;15.30;99.90;;;;;;5052851;28;20025;-69
2022/06/22 04:03:24;;;;;;;13.57;9.82;;;15.30;99.90;;;;;;5057495;28;20413;-69
2022/06/22 04:05:58;;;;;;;12.35;9.73;;;15.30;99.90;;;;;;5055638;28;20067;-69
2022/06/22 04:08:31;;;;;;;11.88;10.57;;;15.20;99.90;;;;;;5055626;28;20082;-69
2022/06/22 04:11:03;;;;;;;18.10;11.95;;;15.20;99.90;;;;;;5054584;28;20033;-69
2022/06/22 04:13:40;;;;;;;15.77;11.57;;;15.20;99.90;;;;;;5036064;28;20470;-69
2022/06/22 04:16:13;;;;;;;18.45;10.95;;;15.20;99.90;;;;;;5035269;28;20545;-69
2022/06/22 04:18:46;;;;;;;13.02;10.40;;;15.30;99.90;;;;;;5043732;28;20013;-69
2022/06/22 04:21:18;;;;;;;13.50;10.45;;;15.30;99.90;;;;;;5055389;28;20040;-69
2022/06/22 04:23:49;;;;;;;14.60;10.95;;;15.30;99.90;;;;;;5055289;28;20098;-71
2022/06/22 04:26:32;;;;;;;15.43;11.65;;;15.30;99.90;;;;;;5065350;28;20028;-70
2022/06/22 04:29:14;;;;;;;17.00;11.32;;;15.30;99.90;;;;;;5059882;28;20025;-70
2022/06/22 04:31:44;;;;;;;;;;;15.30;99.90;;;;;;5055655;28;20021;-68
2022/06/22 04:34:26;;;;;;;15.85;10.95;;;15.40;99.90;;;;;;5054641;28;19912;-70
2022/06/22 04:36:57;;;;;;;16.55;12.57;;;15.40;99.90;;;;;;5054782;28;20021;-71
2022/06/22 04:39:32;;;;;;;13.68;11.73;;;15.40;99.90;;;;;;5074392;28;20457;-71
2022/06/22 04:42:01;;;;;;;14.70;11.30;;;15.30;99.90;;;;;;5075178;28;20068;-70
2022/06/22 04:44:31;;;;;;;20.55;12.68;;;15.40;99.90;;;;;;5054575;28;20025;-70
2022/06/22 04:47:07;;;;;;;20.92;12.70;;;15.40;99.90;;;;;;5054891;28;20024;-70
2022/06/22 04:49:40;;;;;;;15.00;12.82;;;15.40;99.90;;;;;;5054526;28;20025;-70
2022/06/22 04:52:26;;;;;;;12.32;11.02;;;15.40;99.90;;;;;;5055117;28;20449;-70
2022/06/22 04:54:57;;;;;;;15.35;12.25;;;15.50;99.90;;;;;;5034527;28;20061;-70
2022/06/22 04:57:36;;;;;;;13.32;11.30;;;15.50;99.90;;;;;;5040084;28;20040;-70
2022/06/22 05:00:23;;;;;;;15.18;11.63;;;15.50;99.90;;;;;;5054389;28;20029;-70
2022/06/22 05:03:00;;;;;;;16.17;12.65;;;15.60;99.90;;;;;;5052054;28;20041;-70
2022/06/22 05:05:32;;;;;;;17.58;13.25;;;15.60;99.90;;;;;;5054515;28;20059;-70
2022/06/22 05:08:04;;;;;;;19.40;12.20;;;15.60;99.90;;;;;;5054270;28;20036;-70
2022/06/22 05:10:58;;;;;;;16.70;13.73;;;15.70;99.90;;;;;;5053610;28;20470;-71
2022/06/22 05:13:29;;;;;;;18.70;14.25;;;15.70;99.90;;;;;;5041620;28;20053;-69
2022/06/22 05:15:57;;;;;;;19.08;15.07;;;15.60;99.90;;;;;;5053566;28;20032;-70
2022/06/22 05:18:32;;;;;;;21.75;14.20;;;15.70;99.90;;;;;;5050730;28;20096;-71
2022/06/22 05:21:30;;;;;;;16.05;14.30;;;15.70;99.90;;;;;;5053674;28;20033;-70
2022/06/22 05:23:59;;;;;;;22.88;17.08;;;15.70;99.90;;;;;;5052920;28;20021;-70
2022/06/22 05:26:27;;;;;;;19.35;15.30;;;15.80;99.90;;;;;;5047780;28;20037;-71
2022/06/22 05:29:09;;;;;;;17.42;15.15;;;15.80;99.90;;;;;;5056409;28;20028;-70
2022/06/22 05:31:39;;;;;;;22.45;16.67;;;15.90;99.90;;;;;;5045907;28;20017;-70
2022/06/22 05:34:11;;;;;;;23.30;17.48;;;15.90;99.90;;;;;;5047515;28;20053;-70
2022/06/22 05:36:42;;;;;;;27.20;19.15;;;15.90;99.90;;;;;;5047771;28;20074;-71
2022/06/22 05:39:08;;;;;;;23.73;18.63;;;15.90;99.90;;;;;;5050049;28;20021;-70
2022/06/22 05:41:40;;;;;;;22.10;18.27;;;16.00;99.90;;;;;;5047276;28;20393;-70
2022/06/22 05:44:12;;;;;;;30.20;22.38;;;16.00;99.90;;;;;;5052087;28;20379;-70
2022/06/22 05:46:40;;;;;;;29.50;21.45;;;15.90;99.90;;;;;;5046531;28;20032;-70
2022/06/22 05:49:12;;;;;;;27.60;20.52;;;16.00;99.90;;;;;;5044867;28;20029;-70
2022/06/22 05:51:44;;;;;;;26.58;19.67;;;16.10;99.90;;;;;;5058714;28;20099;-70
2022/06/22 05:54:17;;;;;;;24.02;19.63;;;16.10;99.90;;;;;;5049803;28;20108;-70
2022/06/22 05:56:52;;;;;;;28.75;20.48;;;16.10;99.90;;;;;;5052515;28;20021;-70
2022/06/22 05:59:31;;;;;;;29.45;20.38;;;16.20;99.90;;;;;;5054904;28;20022;-70
2022/06/22 06:02:10;;;;;;;28.70;22.17;;;16.30;99.90;;;;;;5048617;28;20037;-70
2022/06/22 06:04:53;;;;;;;27.40;21.58;;;16.30;99.90;;;;;;5051061;28;20045;-70
2022/06/22 06:07:27;;;;;;;28.77;21.83;;;16.40;99.90;;;;;;5053859;28;20033;-70
2022/06/22 06:09:53;;;;;;;27.33;20.90;;;16.40;99.90;;;;;;5055903;28;20135;-70
2022/06/22 06:12:35;;;;;;;33.90;22.33;;;16.50;99.90;;;;;;5054404;28;20485;-70
2022/06/22 06:15:04;;;;;;;25.52;20.33;;;16.50;99.90;;;;;;5051958;28;20161;-70
2022/06/22 06:17:40;;;;;;;27.70;21.17;;;16.50;99.90;;;;;;5044577;28;20021;-70
2022/06/22 06:20:21;;;;;;;26.98;20.00;;;16.60;99.90;;;;;;5049832;28;20094;-69
2022/06/22 06:22:50;;;;;;;28.05;19.55;;;16.70;99.90;;;;;;5048630;28;20477;-69
2022/06/22 06:28:19;;;;;;;26.70;19.13;;;16.90;99.90;;;;;;5050290;28;20098;-70
2022/06/22 06:30:48;;;;;;;23.65;18.33;;;17.00;99.90;;;;;;5050379;28;20025;-70
2022/06/22 06:33:28;;;;;;;24.15;17.70;;;17.20;99.90;;;;;;5047326;28;20068;-70
2022/06/22 06:36:08;;;;;;;26.02;18.13;;;17.20;99.90;;;;;;5047778;28;20911;-70
2022/06/22 06:38:36;;;;;;;23.40;16.83;;;17.40;99.90;;;;;;5044868;28;20100;-71
2022/06/22 06:41:13;;;;;;;25.80;16.33;;;17.60;99.90;;;;;;5051287;28;20523;-70
2022/06/22 06:43:50;;;;;;;21.92;15.27;;;17.60;99.90;;;;;;5045631;28;20111;-70
2022/06/22 06:46:21;;;;;;;18.40;13.77;;;17.80;99.90;;;;;;5045550;28;20460;-70
2022/06/22 06:48:57;;;;;;;16.52;13.57;;;18.00;99.90;;;;;;5047141;28;20111;-70
2022/06/22 06:51:25;;;;;;;20.23;13.98;;;18.30;99.90;;;;;;5049609;28;20025;-70
2022/06/22 06:54:18;;;;;;;44.78;14.40;;;18.40;99.90;;;;;;5043224;28;20053;-70
2022/06/22 06:57:07;;;;;;;20.50;13.32;;;18.70;99.90;;;;;;5053573;28;20028;-70
2022/06/22 06:59:34;;;;;;;18.17;12.57;;;18.90;99.90;;;;;;5051654;28;20033;-71
2022/06/22 07:02:09;;;;;;;17.48;13.00;;;19.10;99.90;;;;;;5049631;28;20120;-70
2022/06/22 07:04:35;;;;;;;16.02;12.13;;;19.20;99.90;;;;;;5064020;28;20035;-71
2022/06/22 07:07:14;;;;;;;22.80;12.77;;;19.30;99.90;;;;;;5051210;28;20473;-71
2022/06/22 07:09:40;;;;;;;16.05;12.50;;;19.50;99.90;;;;;;5062476;28;20016;-71
2022/06/22 07:12:17;;;;;;;20.98;11.80;;;19.60;99.90;;;;;;5060145;28;20067;-71
2022/06/22 07:14:44;;;;;;;19.27;12.73;;;19.60;99.90;;;;;;5049709;28;20222;-71
2022/06/22 07:17:15;;;;;;;15.55;11.68;;;19.90;99.90;;;;;;5052544;28;20025;-71
2022/06/22 07:19:49;;;;;;;14.38;11.10;;;20.00;99.90;;;;;;5054044;28;20029;-71
2022/06/22 07:22:30;;;;;;;17.33;11.60;;;20.20;99.90;;;;;;5054925;28;20493;-71
2022/06/22 07:25:07;;;;;;;13.55;9.32;;;20.40;99.90;;;;;;5050379;28;20067;-71
2022/06/22 07:28:02;;;;;;;15.63;9.95;;;20.50;99.90;;;;;;5051373;28;20048;-71
2022/06/22 07:30:28;;;;;;;12.90;10.27;;;20.50;99.90;;;;;;5043318;28;20033;-71
2022/06/22 07:33:06;;;;;;;14.95;9.93;;;20.50;99.90;;;;;;5046407;28;20424;-71
2022/06/22 07:35:46;;;;;;;13.02;10.43;;;20.50;99.90;;;;;;5049608;28;20033;-71
2022/06/22 07:38:43;;;;;;;15.60;8.75;;;20.60;99.90;;;;;;5048752;28;20021;-71
2022/06/22 07:41:20;;;;;;;18.73;9.60;;;20.80;99.90;;;;;;5043489;28;20029;-71
2022/06/22 07:43:49;;;;;;;15.40;10.13;;;21.20;99.90;;;;;;5050371;28;20124;-71
2022/06/22 07:46:32;;;;;;;10.45;8.18;;;21.30;99.90;;;;;;5046455;28;20021;-71
2022/06/22 07:49:14;;;;;;;13.52;7.88;;;21.50;99.90;;;;;;5047260;28;20124;-72
2022/06/22 07:51:49;;;;;;;13.27;8.40;;;21.70;99.90;;;;;;5050302;28;20025;-72
2022/06/22 07:54:22;;;;;;;14.63;8.63;;;21.90;99.90;;;;;;5053705;28;20332;-71
2022/06/22 07:57:12;;;;;;;7.90;7.05;;;22.10;99.90;;;;;;5056283;28;20098;-72
2022/06/22 07:59:44;;;;;;;8.95;7.50;;;22.30;99.90;;;;;;5045145;28;20454;-71
2022/06/22 08:02:17;;;;;;;10.95;5.97;;;22.40;99.90;;;;;;5049849;28;20711;-71
2022/06/22 08:04:56;;;;;;;12.80;6.70;;;22.60;99.90;;;;;;5044817;28;20044;-71
2022/06/22 08:07:25;;;;;;;10.13;5.72;;;22.70;99.90;;;;;;5047291;28;20104;-71
2022/06/22 08:10:04;;;;;;;10.52;5.80;;;22.90;99.90;;;;;;5046838;28;20378;-71
2022/06/22 08:12:36;;;;;;;10.00;5.90;;;23.10;99.90;;;;;;5012469;28;20037;-70
2022/06/22 08:15:07;;;;;;;8.60;6.20;;;23.20;99.50;;;;;;5055006;28;20044;-70
2022/06/22 08:17:40;;;;;;;6.57;5.38;;;23.30;99.10;;;;;;5054154;28;20048;-70
2022/06/22 08:20:08;;;;;;;8.45;5.72;;;23.40;99.40;;;;;;5053885;28;20040;-70
2022/06/22 08:22:34;;;;;;;9.18;5.72;;;23.50;98.10;;;;;;5050010;28;20112;-70
2022/06/22 08:25:02;;;;;;;6.65;5.35;;;23.60;98.80;;;;;;5060197;28;20047;-70
2022/06/22 08:27:28;;;;;;;5.90;4.57;;;23.60;98.80;;;;;;5054500;28;20029;-70
2022/06/22 08:29:55;;;;;;;7.53;4.22;;;23.70;97.00;;;;;;5053117;28;20028;-72
2022/06/22 08:32:23;;;;;;;8.90;3.72;;;23.90;97.80;;;;;;5054642;28;20111;-72
2022/06/22 08:34:55;;;;;;;9.60;4.13;;;24.00;97.10;;;;;;5051471;28;20051;-71
2022/06/22 08:38:01;;;;;;;7.17;3.37;;;24.00;98.20;;;;;;5058076;28;20028;-72
2022/06/22 08:40:35;;;;;;;6.63;3.45;;;24.00;96.20;;;;;;5052161;28;20775;-72
2022/06/22 08:43:10;;;;;;;7.63;3.63;;;24.20;96.30;;;;;;5062721;28;20186;-71
2022/06/22 08:45:57;;;;;;;7.90;3.55;;;24.30;96.60;;;;;;5052788;28;20045;-71
2022/06/22 08:48:31;;;;;;;8.20;3.17;;;24.40;97.60;;;;;;5061976;28;20024;-72
2022/06/22 08:51:22;;;;;;;9.25;3.58;;;24.40;96.70;;;;;;5064022;28;20112;-72
2022/06/22 08:53:51;;;;;;;6.43;2.63;;;24.50;96.40;;;;;;5051988;28;20469;-72
2022/06/22 08:56:59;;;;;;;5.70;2.92;;;24.70;96.00;;;;;;5059911;28;20021;-72
2022/06/22 08:59:54;;;;;;;5.30;2.45;;;24.70;94.90;;;;;;5054551;28;20076;-72
2022/06/22 09:02:25;;;;;;;7.22;2.60;;;25.00;94.20;;;;;;5050446;28;20042;-72
2022/06/22 09:05:12;;;;;;;13.68;3.28;;;24.90;94.60;;;;;;5055124;28;20493;-72
2022/06/22 09:07:56;;;;;;;5.03;2.45;;;25.00;94.20;;;;;;5048334;28;20171;-71
2022/06/22 09:10:44;;;;;;;6.93;3.03;;;25.00;94.00;;;;;;5047866;28;20159;-72
2022/06/22 09:13:40;;;;;;;11.05;3.17;;;25.20;92.90;;;;;;5061246;28;20476;-74
2022/06/22 09:16:35;;;;;;;6.63;3.05;;;25.40;94.50;;;;;;5034993;28;20022;-72
2022/06/22 09:19:16;;;;;;;9.00;4.07;;;25.40;94.20;;;;;;5056049;28;20385;-71
2022/06/22 09:21:56;;;;;;;9.57;2.95;;;25.40;93.10;;;;;;5066914;28;20032;-72
2022/06/22 09:24:51;;;;;;;11.30;3.40;;;25.60;93.80;;;;;;5059728;28;20033;-71
2022/06/22 09:27:24;;;;;;;4.75;3.17;;;25.60;94.10;;;;;;5058406;28;20029;-71
2022/06/22 09:30:23;;;;;;;7.35;3.20;;;25.70;92.70;;;;;;5069010;28;20469;-70
2022/06/22 09:32:52;;;;;;;4.93;3.20;;;25.70;92.60;;;;;;5047778;28;20031;-71
2022/06/22 09:35:36;;;;;;;8.18;3.45;;;25.80;92.50;;;;;;5067556;28;20029;-71
2022/06/22 09:38:04;;;;;;;9.90;2.85;;;25.90;91.70;;;;;;5039953;28;20013;-70
2022/06/22 09:40:54;;;;;;;7.50;3.35;;;26.00;91.60;;;;;;5062098;28;20146;-71
2022/06/22 09:43:40;;;;;;;8.23;2.67;;;26.10;92.10;;;;;;5067101;28;20067;-71
2022/06/22 09:46:08;;;;;;;5.13;2.78;;;26.30;92.60;;;;;;5042208;28;20060;-71
2022/06/22 09:48:46;;;;;;;6.28;2.70;;;26.40;91.60;;;;;;5061946;28;20032;-71
2022/06/22 09:51:52;;;;;;;5.88;3.20;;;26.40;90.50;;;;;;5067718;28;20024;-71
2022/06/22 09:57:42;;;;;;;6.97;3.50;;;26.60;90.30;;;;;;5052173;28;20039;-71
2022/06/22 10:00:21;;;;;;;4.93;2.75;;;26.70;89.30;;;;;;5043848;28;20028;-71
2022/06/22 10:03:01;;;;;;;9.20;3.20;;;26.70;91.10;;;;;;5050885;28;20078;-71
2022/06/22 10:05:33;;;;;;;8.82;3.08;;;26.70;91.30;;;;;;5066171;28;20048;-71
2022/06/22 10:08:36;;;;;;;8.75;2.65;;;26.70;90.80;;;;;;5038806;28;20162;-71
2022/06/22 10:11:27;;;;;;;9.98;3.22;;;26.80;90.20;;;;;;5054295;28;20041;-71
2022/06/22 10:14:38;;;;;;;6.07;2.20;;;27.00;90.10;;;;;;5053097;28;20040;-71
2022/06/22 10:17:30;;;;;;;3.97;2.72;;;27.00;90.30;;;;;;5059963;28;20504;-71
2022/06/22 10:20:14;;;;;;;4.88;2.75;;;27.10;89.90;;;;;;5068922;28;20028;-72
2022/06/22 10:22:54;;;;;;;9.48;3.30;;;27.10;89.00;;;;;;5055773;28;20061;-71
2022/06/22 10:25:44;;;;;;;3.45;2.65;;;26.90;87.30;;;;;;5061447;28;20516;-71
2022/06/22 10:28:27;;;;;;;6.85;2.60;;;27.20;88.30;;;;;;5052422;28;20078;-71
2022/06/22 10:31:19;;;;;;;8.27;2.53;;;27.30;89.70;;;;;;5063502;28;20483;-71
2022/06/22 10:34:13;;;;;;;12.70;3.50;;;27.40;89.60;;;;;;5051093;28;20033;-71
2022/06/22 10:37:17;;;;;;;5.38;2.63;;;27.50;90.70;;;;;;5059044;28;20094;-71
2022/06/22 10:39:53;;;;;;;7.35;2.70;;;27.70;86.00;;;;;;5043151;28;20021;-72
2022/06/22 10:45:40;;;;;;;5.30;2.17;;;27.80;86.90;;;;;;5056045;28;20052;-71
2022/06/22 10:48:24;;;;;;;6.97;2.72;;;28.10;89.30;;;;;;5052430;28;20477;-71
2022/06/22 10:51:21;;;;;;;6.47;2.33;;;27.90;83.00;;;;;;5061155;28;20029;-73
2022/06/22 10:54:24;;;;;;;2.78;2.10;;;28.00;86.10;;;;;;5067888;28;20028;-72
2022/06/22 10:57:17;;;;;;;5.78;2.30;;;28.20;80.90;;;;;;5060234;28;20032;-73
2022/06/22 11:00:07;;;;;;;8.43;2.58;;;28.20;83.50;;;;;;5051783;28;20028;-72
2022/06/22 11:02:36;;;;;;;7.28;2.67;;;28.30;85.50;;;;;;5037783;28;20045;-71
2022/06/22 11:05:38;;;;;;;5.82;2.17;;;28.30;84.10;;;;;;5048400;28;20675;-72
2022/06/22 11:08:10;;;;;;;5.25;2.13;;;28.30;83.60;;;;;;5067499;28;20052;-72
2022/06/22 11:11:08;;;;;;;4.78;2.33;;;28.40;82.50;;;;;;5059821;28;20045;-73
2022/06/22 11:14:10;;;;;;;5.47;2.50;;;28.10;84.30;;;;;;5037076;28;20029;-72
2022/06/22 11:17:01;;;;;;;7.13;2.30;;;27.80;83.60;;;;;;5040574;28;20029;-72
2022/06/22 11:20:03;;;;;;;6.25;1.70;;;28.00;84.00;;;;;;5042878;28;20025;-71
2022/06/22 11:22:53;;;;;;;6.53;2.20;;;27.70;84.40;;;;;;5041427;28;20081;-72
2022/06/22 11:31:56;;;;;;;5.05;1.77;;;28.00;81.30;;;;;;5043442;28;20041;-72
2022/06/22 11:34:40;;;;;;;6.88;1.73;;;28.20;81.70;;;;;;5041498;28;20355;-71
2022/06/22 11:37:26;;;;;;;5.05;1.40;;;28.00;81.40;;;;;;5040976;28;20144;-71
2022/06/22 11:39:55;;;;;;;4.00;1.80;;;28.40;79.50;;;;;;5041342;28;20100;-72
2022/06/22 11:42:49;;;;;;;6.35;1.95;;;28.50;84.80;;;;;;5047744;28;20033;-71
2022/06/22 11:45:50;;;;;;;5.65;1.50;;;28.70;80.60;;;;;;5062014;28;20044;-71
2022/06/22 11:48:42;;;;;;;4.10;2.20;;;29.10;81.50;;;;;;5059301;28;20064;-72
2022/06/22 11:51:36;;;;;;;5.53;2.15;;;29.10;80.20;;;;;;5058011;28;20064;-71
2022/06/22 11:54:11;;;;;;;3.58;2.28;;;29.10;79.70;;;;;;5048190;28;20055;-71
2022/06/22 11:56:50;;;;;;;2.50;1.55;;;28.90;76.90;;;;;;5046672;28;20021;-71
2022/06/22 11:59:31;;;;;;;4.05;1.73;;;29.00;78.60;;;;;;5051085;28;20032;-71
2022/06/22 12:02:20;;;;;;;9.20;2.70;;;29.30;80.30;;;;;;5067183;28;20043;-70
2022/06/22 12:05:09;;;;;;;3.20;2.00;;;29.20;78.60;;;;;;5049934;28;20036;-71
2022/06/22 12:07:56;;;;;;;11.10;2.42;;;29.00;77.80;;;;;;5052087;28;20440;-71
2022/06/22 12:10:45;;;;;;;5.18;2.22;;;29.00;76.40;;;;;;5059671;28;20392;-70
2022/06/22 12:13:34;;;;;;;6.93;2.25;;;29.10;79.00;;;;;;5052835;28;20033;-71
2022/06/22 12:16:08;;;;;;;5.03;2.17;;;29.40;77.90;;;;;;5059533;28;20029;-71
2022/06/22 12:19:03;;;;;;;7.15;1.98;;;29.50;75.90;;;;;;5060151;28;20113;-70
2022/06/22 12:21:58;;;;;;;5.03;2.75;;;29.50;77.20;;;;;;5046042;28;20187;-71
2022/06/22 12:24:42;;;;;;;5.65;1.85;;;29.20;79.10;;;;;;5052459;28;20363;-71
2022/06/22 12:27:24;;;;;;;2.65;1.80;;;29.20;73.00;;;;;;5048679;28;20493;-71
2022/06/22 12:29:55;;;;;;;9.55;2.03;;;29.40;75.50;;;;;;5052211;28;20044;-71
2022/06/22 12:32:53;;;;;;;4.75;1.70;;;29.50;75.20;;;;;;5049119;28;20105;-71
2022/06/22 12:35:47;;;;;;;6.90;2.33;;;29.30;74.40;;;;;;5050430;28;20041;-71
2022/06/22 12:38:37;;;;;;;6.97;1.63;;;29.50;74.00;;;;;;5052886;28;20259;-71
2022/06/22 12:41:11;;;;;;;6.88;2.33;;;29.70;78.20;;;;;;5053809;28;20044;-71
2022/06/22 12:44:00;;;;;;;7.13;2.10;;;29.90;79.30;;;;;;5049996;28;20040;-71
2022/06/22 12:46:48;;;;;;;7.20;1.45;;;29.70;76.40;;;;;;5053623;28;20056;-71
2022/06/22 12:49:28;;;;;;;2.28;1.40;;;29.80;72.80;;;;;;5054148;28;20029;-71
2022/06/22 12:52:05;;;;;;;3.72;1.58;;;29.80;73.50;;;;;;5045495;28;20035;-71
2022/06/22 12:54:57;;;;;;;6.72;1.98;;;29.70;76.00;;;;;;5060315;28;20059;-70
2022/06/22 12:57:43;;;;;;;5.07;2.17;;;29.70;73.90;;;;;;5049053;28;20056;-71
2022/06/22 13:00:09;;;;;;;4.50;1.50;;;30.10;73.20;;;;;;5060322;28;20054;-71
2022/06/22 13:02:36;;;;;;;5.28;1.75;;;30.10;74.80;;;;;;5049874;28;20579;-70
2022/06/22 13:05:18;;;;;;;5.60;2.00;;;29.90;75.40;;;;;;5062821;28;20441;-71
2022/06/22 13:07:48;;;;;;;4.60;1.52;;;30.10;73.30;;;;;;5055308;28;20108;-71
2022/06/22 13:10:16;;;;;;;5.35;1.90;;;30.00;71.50;;;;;;5051926;28;20466;-73
2022/06/22 13:13:05;;;;;;;5.85;2.00;;;30.00;74.40;;;;;;5055458;28;20472;-70
2022/06/22 13:15:40;;;;;;;5.63;1.90;;;30.10;74.20;;;;;;5068791;28;20053;-73
2022/06/22 13:18:30;;;;;;;4.88;1.77;;;30.10;72.40;;;;;;5039448;28;20044;-72
2022/06/22 13:21:21;;;;;;;4.72;1.70;;;30.20;74.00;;;;;;5062662;28;20044;-72
2022/06/22 13:24:01;;;;;;;4.10;1.50;;;30.00;75.30;;;;;;5067126;28;20040;-73
2022/06/22 13:26:41;;;;;;;3.65;2.33;;;30.00;71.10;;;;;;5051291;28;20390;-73
2022/06/22 13:29:27;;;;;;;2.35;1.48;;;30.10;71.00;;;;;;5064769;28;20031;-71
2022/06/22 13:31:57;;;;;;;4.20;1.80;;;30.20;73.80;;;;;;5051292;28;20023;-71
2022/06/22 13:34:29;;;;;;;8.73;1.90;;;30.20;74.30;;;;;;5044830;28;20033;-70
2022/06/22 13:37:09;;;;;;;4.38;2.20;;;30.20;75.30;;;;;;5049827;28;20078;-70
2022/06/22 13:40:05;;;;;;;7.05;2.00;;;30.20;74.00;;;;;;5065462;28;20090;-71
2022/06/22 13:43:21;;;;;;;6.22;1.55;;;30.10;74.40;;;;;;5060636;28;20040;-70
2022/06/22 13:46:13;;;;;;;4.45;1.52;;;30.10;73.80;;;;;;5088271;28;20408;-70
2022/06/22 13:49:11;;;;;;;4.23;1.63;;;30.10;74.60;;;;;;5052772;28;20029;-71
2022/06/22 13:52:30;;;;;;;4.13;1.60;;;30.20;74.00;;;;;;5053397;28;20513;-70
2022/06/22 13:54:59;;;;;;;4.00;1.90;;;30.40;80.70;;;;;;5006382;28;20041;-70
2022/06/22 13:57:44;;;;;;;5.22;1.90;;;30.40;74.30;;;;;;5005076;28;20034;-70
2022/06/22 14:00:42;;;;;;;5.45;1.90;;;30.30;76.00;;;;;;5034780;28;20045;-70
2022/06/22 14:03:19;;;;;;;4.40;1.77;;;30.10;73.20;;;;;;5051507;28;20083;-70
2022/06/22 14:05:53;;;;;;;3.03;1.42;;;30.10;74.20;;;;;;5058825;28;20025;-70